Etusivu
METAR-TAF:

METAR-TAF

Lentoasemat :

Albuquerque, New Mexico, Yhdysvallat

Leveyspiiri: 35-02-30N, Pituuspiiri: 106-36-53W, korkeus merenpinnasta: 1631 m

Tämänhetkinen sää

Tämä raportti tehtiin 20 minuuttia sitten, kello 19.52 UTC
tyyntä
Lämpötila 9°C
Kosteus 46%
Ilmanpaine 1028 hPa
Näkyvyys: 16.1 km
Pilvistä 22000 ft:n korkeudessa

METAR: KABQ 061952Z 00000KT 10SM OVC220 09/M02 A3035 RMK AO2 SLP268 T00891017

Aika: 13:12 (20:12 UTC)

Sääennuste

Tämä raportti tehtiin 2 tuntia ja 52 minuuttia sitten, kello 17.20 UTC
Ennuste voimassa 06. päivästä klo 18 UTC - 07. päivään klo 18 UTC
Tuuli 4 kn eri suunnista
Näkyvyys: 10 km
Hajonneita pilviä 20000 ft:n korkeudessa

TAF: KABQ 061720Z 0618/0718 VRB04KT P6SM BKN200

Säähavainnot ja -ennusteet yli 4000 lentoasemalta (METAR- ja TAF-raportit).

Käytössä olevat sääasemat on merkitty karttaan keltaisilla ja punaisilla pisteillä.

Aseta hiiri pisteen päälle nähdäksesi sääaseman nimen.

Klikkaa sitten nähdäksesi säähavainnot ja -ennusteet.

Kartan vaihtaminen: klikkaa mustalla rastilla varustettuja vihreitä pisteitä, niin voit zoomata sisään; viivalla varustettua vihreää pistettä, niin voit zoomata ulos tai vihreitä nuolia, niin pääset viereisille kartoille.


METAR-TAF: